sensor_id;sensor_type;location;lat;lon;timestamp;P1;durP1;ratioP1;P2;durP2;ratioP2
76978;SDS011;65911;47.502;19.148;2024-02-23T00:02:48;3.00;;;1.43;;
76978;SDS011;65911;47.502;19.148;2024-02-23T00:05:50;3.95;;;1.67;;
76978;SDS011;65911;47.502;19.148;2024-02-23T00:08:52;2.08;;;1.40;;
76978;SDS011;65911;47.502;19.148;2024-02-23T00:11:56;1.92;;;1.58;;
76978;SDS011;65911;47.502;19.148;2024-02-23T00:14:58;2.63;;;1.67;;
76978;SDS011;65911;47.502;19.148;2024-02-23T00:18:01;2.03;;;1.48;;
76978;SDS011;65911;47.502;19.148;2024-02-23T00:21:05;2.55;;;1.73;;
76978;SDS011;65911;47.502;19.148;2024-02-23T00:24:08;4.07;;;1.50;;
76978;SDS011;65911;47.502;19.148;2024-02-23T00:27:10;2.75;;;1.38;;
76978;SDS011;65911;47.502;19.148;2024-02-23T00:30:13;3.05;;;1.58;;
76978;SDS011;65911;47.502;19.148;2024-02-23T00:33:15;4.03;;;1.80;;
76978;SDS011;65911;47.502;19.148;2024-02-23T00:36:17;3.55;;;1.65;;
76978;SDS011;65911;47.502;19.148;2024-02-23T00:39:19;2.75;;;1.52;;
76978;SDS011;65911;47.502;19.148;2024-02-23T00:42:22;2.85;;;2.00;;
76978;SDS011;65911;47.502;19.148;2024-02-23T00:45:24;3.10;;;1.85;;
76978;SDS011;65911;47.502;19.148;2024-02-23T00:48:26;3.80;;;1.92;;
76978;SDS011;65911;47.502;19.148;2024-02-23T00:51:29;2.75;;;1.50;;
76978;SDS011;65911;47.502;19.148;2024-02-23T00:54:31;2.20;;;1.63;;
76978;SDS011;65911;47.502;19.148;2024-02-23T00:57:33;2.35;;;1.75;;
76978;SDS011;65911;47.502;19.148;2024-02-23T01:00:37;2.50;;;1.52;;
76978;SDS011;65911;47.502;19.148;2024-02-23T01:03:39;4.17;;;2.10;;
76978;SDS011;65911;47.502;19.148;2024-02-23T01:06:42;2.67;;;1.67;;
76978;SDS011;65911;47.502;19.148;2024-02-23T01:09:44;2.45;;;1.58;;
76978;SDS011;65911;47.502;19.148;2024-02-23T01:12:46;2.50;;;1.83;;
76978;SDS011;65911;47.502;19.148;2024-02-23T01:15:48;2.35;;;1.77;;
76978;SDS011;65911;47.502;19.148;2024-02-23T01:18:51;2.00;;;1.80;;
76978;SDS011;65911;47.502;19.148;2024-02-23T01:21:53;1.95;;;1.35;;
76978;SDS011;65911;47.502;19.148;2024-02-23T01:25:02;3.33;;;1.77;;
76978;SDS011;65911;47.502;19.148;2024-02-23T01:28:04;2.55;;;2.00;;
76978;SDS011;65911;47.502;19.148;2024-02-23T01:31:10;3.00;;;1.88;;
76978;SDS011;65911;47.502;19.148;2024-02-23T01:34:13;3.47;;;1.80;;
76978;SDS011;65911;47.502;19.148;2024-02-23T01:37:15;2.20;;;1.60;;
76978;SDS011;65911;47.502;19.148;2024-02-23T01:40:18;3.42;;;2.00;;
76978;SDS011;65911;47.502;19.148;2024-02-23T01:43:21;2.47;;;2.00;;
76978;SDS011;65911;47.502;19.148;2024-02-23T01:46:23;2.28;;;1.63;;
76978;SDS011;65911;47.502;19.148;2024-02-23T01:49:26;2.70;;;2.35;;
76978;SDS011;65911;47.502;19.148;2024-02-23T01:52:33;4.80;;;2.10;;
76978;SDS011;65911;47.502;19.148;2024-02-23T01:55:36;2.90;;;1.90;;
76978;SDS011;65911;47.502;19.148;2024-02-23T01:58:39;2.75;;;2.47;;
76978;SDS011;65911;47.502;19.148;2024-02-23T02:01:42;2.28;;;1.50;;
76978;SDS011;65911;47.502;19.148;2024-02-23T02:04:45;2.80;;;2.20;;
76978;SDS011;65911;47.502;19.148;2024-02-23T02:07:54;3.47;;;1.80;;
76978;SDS011;65911;47.502;19.148;2024-02-23T02:11:01;4.82;;;2.35;;
76978;SDS011;65911;47.502;19.148;2024-02-23T02:14:03;3.15;;;1.80;;
76978;SDS011;65911;47.502;19.148;2024-02-23T02:17:05;3.23;;;1.67;;
76978;SDS011;65911;47.502;19.148;2024-02-23T02:20:12;3.95;;;1.92;;
76978;SDS011;65911;47.502;19.148;2024-02-23T02:23:17;2.65;;;1.90;;
76978;SDS011;65911;47.502;19.148;2024-02-23T02:26:20;2.30;;;2.00;;
76978;SDS011;65911;47.502;19.148;2024-02-23T02:29:22;2.45;;;1.92;;
76978;SDS011;65911;47.502;19.148;2024-02-23T02:32:24;2.28;;;1.95;;
76978;SDS011;65911;47.502;19.148;2024-02-23T02:35:27;3.85;;;1.80;;
76978;SDS011;65911;47.502;19.148;2024-02-23T02:38:29;2.60;;;1.57;;
76978;SDS011;65911;47.502;19.148;2024-02-23T02:41:32;2.22;;;1.50;;
76978;SDS011;65911;47.502;19.148;2024-02-23T02:44:34;1.88;;;1.30;;
76978;SDS011;65911;47.502;19.148;2024-02-23T02:47:36;3.30;;;1.87;;
76978;SDS011;65911;47.502;19.148;2024-02-23T02:50:38;2.22;;;1.42;;
76978;SDS011;65911;47.502;19.148;2024-02-23T02:53:41;2.58;;;2.08;;
76978;SDS011;65911;47.502;19.148;2024-02-23T02:56:45;3.80;;;1.90;;
76978;SDS011;65911;47.502;19.148;2024-02-23T02:59:52;3.00;;;1.83;;
76978;SDS011;65911;47.502;19.148;2024-02-23T03:02:56;2.70;;;1.70;;
76978;SDS011;65911;47.502;19.148;2024-02-23T03:05:58;5.57;;;2.05;;
76978;SDS011;65911;47.502;19.148;2024-02-23T03:09:01;3.90;;;1.90;;
76978;SDS011;65911;47.502;19.148;2024-02-23T03:12:05;2.95;;;1.80;;
76978;SDS011;65911;47.502;19.148;2024-02-23T03:15:08;3.60;;;1.85;;
76978;SDS011;65911;47.502;19.148;2024-02-23T03:18:12;4.73;;;2.23;;
76978;SDS011;65911;47.502;19.148;2024-02-23T03:21:17;2.88;;;1.88;;
76978;SDS011;65911;47.502;19.148;2024-02-23T03:24:41;2.38;;;1.88;;
76978;SDS011;65911;47.502;19.148;2024-02-23T03:27:44;4.47;;;2.05;;
76978;SDS011;65911;47.502;19.148;2024-02-23T03:30:48;4.30;;;2.10;;
76978;SDS011;65911;47.502;19.148;2024-02-23T03:33:50;4.28;;;2.08;;
76978;SDS011;65911;47.502;19.148;2024-02-23T03:36:53;3.20;;;1.80;;
76978;SDS011;65911;47.502;19.148;2024-02-23T03:39:58;4.53;;;2.23;;
76978;SDS011;65911;47.502;19.148;2024-02-23T03:43:02;3.50;;;1.70;;
76978;SDS011;65911;47.502;19.148;2024-02-23T03:46:06;3.38;;;1.98;;
76978;SDS011;65911;47.502;19.148;2024-02-23T03:49:09;2.57;;;1.80;;
76978;SDS011;65911;47.502;19.148;2024-02-23T03:52:12;2.63;;;1.80;;
76978;SDS011;65911;47.502;19.148;2024-02-23T03:55:16;4.43;;;2.00;;
76978;SDS011;65911;47.502;19.148;2024-02-23T03:58:20;2.58;;;1.70;;
76978;SDS011;65911;47.502;19.148;2024-02-23T04:01:25;2.53;;;1.60;;
76978;SDS011;65911;47.502;19.148;2024-02-23T04:04:28;3.55;;;2.00;;
76978;SDS011;65911;47.502;19.148;2024-02-23T04:07:31;2.40;;;1.50;;
76978;SDS011;65911;47.502;19.148;2024-02-23T04:10:35;4.37;;;2.00;;
76978;SDS011;65911;47.502;19.148;2024-02-23T04:13:38;2.70;;;1.63;;
76978;SDS011;65911;47.502;19.148;2024-02-23T04:16:40;2.33;;;1.80;;
76978;SDS011;65911;47.502;19.148;2024-02-23T04:19:44;4.37;;;2.00;;
76978;SDS011;65911;47.502;19.148;2024-02-23T04:22:46;2.35;;;1.85;;
76978;SDS011;65911;47.502;19.148;2024-02-23T04:25:49;2.35;;;1.55;;
76978;SDS011;65911;47.502;19.148;2024-02-23T04:28:53;3.78;;;1.73;;
76978;SDS011;65911;47.502;19.148;2024-02-23T04:31:56;4.28;;;2.13;;
76978;SDS011;65911;47.502;19.148;2024-02-23T04:34:59;2.65;;;1.90;;
76978;SDS011;65911;47.502;19.148;2024-02-23T04:38:02;2.50;;;1.83;;
76978;SDS011;65911;47.502;19.148;2024-02-23T04:41:04;3.03;;;1.80;;
76978;SDS011;65911;47.502;19.148;2024-02-23T04:44:08;3.15;;;2.15;;
76978;SDS011;65911;47.502;19.148;2024-02-23T04:47:11;2.35;;;1.90;;
76978;SDS011;65911;47.502;19.148;2024-02-23T04:50:14;2.87;;;2.13;;
76978;SDS011;65911;47.502;19.148;2024-02-23T04:53:17;4.20;;;2.13;;
76978;SDS011;65911;47.502;19.148;2024-02-23T04:56:21;3.53;;;2.05;;
76978;SDS011;65911;47.502;19.148;2024-02-23T04:59:25;4.20;;;2.20;;
76978;SDS011;65911;47.502;19.148;2024-02-23T05:02:27;4.10;;;2.00;;
76978;SDS011;65911;47.502;19.148;2024-02-23T05:05:35;4.00;;;2.05;;
76978;SDS011;65911;47.502;19.148;2024-02-23T05:08:37;4.18;;;2.25;;
76978;SDS011;65911;47.502;19.148;2024-02-23T05:11:40;3.47;;;2.00;;
76978;SDS011;65911;47.502;19.148;2024-02-23T05:14:42;3.40;;;2.00;;
76978;SDS011;65911;47.502;19.148;2024-02-23T05:17:44;2.63;;;2.00;;
76978;SDS011;65911;47.502;19.148;2024-02-23T05:20:46;3.70;;;1.80;;
76978;SDS011;65911;47.502;19.148;2024-02-23T05:23:49;3.33;;;2.22;;
76978;SDS011;65911;47.502;19.148;2024-02-23T05:26:51;2.88;;;1.90;;
76978;SDS011;65911;47.502;19.148;2024-02-23T05:29:53;2.38;;;1.77;;
76978;SDS011;65911;47.502;19.148;2024-02-23T05:32:56;4.00;;;2.13;;
76978;SDS011;65911;47.502;19.148;2024-02-23T05:35:58;4.70;;;2.40;;
76978;SDS011;65911;47.502;19.148;2024-02-23T05:39:01;3.38;;;2.22;;
76978;SDS011;65911;47.502;19.148;2024-02-23T05:42:03;3.30;;;1.90;;
76978;SDS011;65911;47.502;19.148;2024-02-23T05:45:09;3.08;;;2.25;;
76978;SDS011;65911;47.502;19.148;2024-02-23T05:48:11;6.00;;;2.22;;
76978;SDS011;65911;47.502;19.148;2024-02-23T05:51:14;2.27;;;1.87;;
76978;SDS011;65911;47.502;19.148;2024-02-23T05:54:16;2.28;;;1.70;;
76978;SDS011;65911;47.502;19.148;2024-02-23T05:57:18;2.17;;;1.63;;
76978;SDS011;65911;47.502;19.148;2024-02-23T06:00:20;2.13;;;1.50;;
76978;SDS011;65911;47.502;19.148;2024-02-23T06:03:23;3.20;;;1.70;;
76978;SDS011;65911;47.502;19.148;2024-02-23T06:06:25;2.92;;;1.80;;
76978;SDS011;65911;47.502;19.148;2024-02-23T06:09:29;3.42;;;1.73;;
76978;SDS011;65911;47.502;19.148;2024-02-23T06:12:31;3.23;;;2.10;;
76978;SDS011;65911;47.502;19.148;2024-02-23T06:15:33;4.28;;;2.05;;
76978;SDS011;65911;47.502;19.148;2024-02-23T06:18:36;4.80;;;2.05;;
76978;SDS011;65911;47.502;19.148;2024-02-23T06:21:39;2.30;;;1.80;;
76978;SDS011;65911;47.502;19.148;2024-02-23T06:24:41;3.42;;;1.80;;
76978;SDS011;65911;47.502;19.148;2024-02-23T06:27:43;2.97;;;2.05;;
76978;SDS011;65911;47.502;19.148;2024-02-23T06:30:46;2.97;;;2.00;;
76978;SDS011;65911;47.502;19.148;2024-02-23T06:33:48;7.38;;;2.40;;
76978;SDS011;65911;47.502;19.148;2024-02-23T06:36:51;2.85;;;1.95;;
76978;SDS011;65911;47.502;19.148;2024-02-23T06:39:54;3.25;;;2.50;;
76978;SDS011;65911;47.502;19.148;2024-02-23T06:42:56;3.53;;;2.00;;
76978;SDS011;65911;47.502;19.148;2024-02-23T06:45:58;3.13;;;1.98;;
76978;SDS011;65911;47.502;19.148;2024-02-23T06:49:06;5.28;;;2.10;;
76978;SDS011;65911;47.502;19.148;2024-02-23T06:52:09;3.83;;;2.33;;
76978;SDS011;65911;47.502;19.148;2024-02-23T06:55:12;3.13;;;2.00;;
76978;SDS011;65911;47.502;19.148;2024-02-23T06:58:14;3.88;;;2.70;;
76978;SDS011;65911;47.502;19.148;2024-02-23T07:01:19;3.97;;;2.30;;
76978;SDS011;65911;47.502;19.148;2024-02-23T07:04:22;2.60;;;2.10;;
76978;SDS011;65911;47.502;19.148;2024-02-23T07:07:25;5.78;;;2.20;;
76978;SDS011;65911;47.502;19.148;2024-02-23T07:10:30;2.67;;;2.10;;
76978;SDS011;65911;47.502;19.148;2024-02-23T07:13:33;3.63;;;2.03;;
76978;SDS011;65911;47.502;19.148;2024-02-23T07:16:38;3.55;;;2.10;;
76978;SDS011;65911;47.502;19.148;2024-02-23T07:19:44;5.60;;;2.38;;
76978;SDS011;65911;47.502;19.148;2024-02-23T07:22:46;3.63;;;2.70;;
76978;SDS011;65911;47.502;19.148;2024-02-23T07:25:52;4.45;;;2.25;;
76978;SDS011;65911;47.502;19.148;2024-02-23T07:28:55;3.35;;;2.45;;
76978;SDS011;65911;47.502;19.148;2024-02-23T07:31:57;4.57;;;2.70;;
76978;SDS011;65911;47.502;19.148;2024-02-23T07:35:00;3.65;;;2.70;;
76978;SDS011;65911;47.502;19.148;2024-02-23T07:38:02;3.92;;;2.80;;
76978;SDS011;65911;47.502;19.148;2024-02-23T07:41:07;4.85;;;2.75;;
76978;SDS011;65911;47.502;19.148;2024-02-23T07:44:09;3.37;;;2.60;;
76978;SDS011;65911;47.502;19.148;2024-02-23T07:47:12;2.50;;;2.20;;
76978;SDS011;65911;47.502;19.148;2024-02-23T07:50:14;4.30;;;2.60;;
76978;SDS011;65911;47.502;19.148;2024-02-23T07:53:18;12.07;;;2.83;;
76978;SDS011;65911;47.502;19.148;2024-02-23T07:56:20;12.30;;;2.45;;
76978;SDS011;65911;47.502;19.148;2024-02-23T07:59:22;33.42;;;4.18;;
76978;SDS011;65911;47.502;19.148;2024-02-23T08:02:24;18.27;;;3.33;;
76978;SDS011;65911;47.502;19.148;2024-02-23T08:05:27;8.65;;;3.03;;
76978;SDS011;65911;47.502;19.148;2024-02-23T08:08:30;17.65;;;3.38;;
76978;SDS011;65911;47.502;19.148;2024-02-23T08:11:34;6.95;;;3.40;;
76978;SDS011;65911;47.502;19.148;2024-02-23T08:14:38;9.77;;;3.23;;
76978;SDS011;65911;47.502;19.148;2024-02-23T08:17:40;8.18;;;3.15;;
76978;SDS011;65911;47.502;19.148;2024-02-23T08:20:43;8.90;;;3.13;;
76978;SDS011;65911;47.502;19.148;2024-02-23T08:23:45;9.00;;;3.60;;
76978;SDS011;65911;47.502;19.148;2024-02-23T08:30:24;10.60;;;4.00;;
76978;SDS011;65911;47.502;19.148;2024-02-23T08:38:07;5.97;;;3.38;;
76978;SDS011;65911;47.502;19.148;2024-02-23T08:41:02;6.25;;;3.58;;
76978;SDS011;65911;47.502;19.148;2024-02-23T08:44:04;10.90;;;3.20;;
76978;SDS011;65911;47.502;19.148;2024-02-23T08:47:07;4.77;;;3.17;;
76978;SDS011;65911;47.502;19.148;2024-02-23T08:50:09;6.38;;;3.25;;
76978;SDS011;65911;47.502;19.148;2024-02-23T08:53:12;4.63;;;3.05;;
76978;SDS011;65911;47.502;19.148;2024-02-23T08:56:14;6.07;;;3.20;;
76978;SDS011;65911;47.502;19.148;2024-02-23T08:59:18;6.93;;;2.95;;
76978;SDS011;65911;47.502;19.148;2024-02-23T09:02:20;6.15;;;3.65;;
76978;SDS011;65911;47.502;19.148;2024-02-23T09:05:23;3.58;;;3.10;;
76978;SDS011;65911;47.502;19.148;2024-02-23T09:08:25;4.82;;;3.20;;
76978;SDS011;65911;47.502;19.148;2024-02-23T09:11:27;6.15;;;3.03;;
76978;SDS011;65911;47.502;19.148;2024-02-23T09:14:31;7.05;;;3.80;;
76978;SDS011;65911;47.502;19.148;2024-02-23T09:17:33;6.50;;;3.13;;
76978;SDS011;65911;47.502;19.148;2024-02-23T09:20:36;6.15;;;3.10;;
76978;SDS011;65911;47.502;19.148;2024-02-23T09:23:38;5.90;;;3.65;;
76978;SDS011;65911;47.502;19.148;2024-02-23T09:26:42;7.17;;;4.00;;
76978;SDS011;65911;47.502;19.148;2024-02-23T09:29:44;8.10;;;3.78;;
76978;SDS011;65911;47.502;19.148;2024-02-23T09:32:46;5.75;;;3.28;;
76978;SDS011;65911;47.502;19.148;2024-02-23T09:35:54;5.10;;;3.22;;
76978;SDS011;65911;47.502;19.148;2024-02-23T09:38:56;5.93;;;3.92;;
76978;SDS011;65911;47.502;19.148;2024-02-23T09:42:09;6.15;;;4.00;;
76978;SDS011;65911;47.502;19.148;2024-02-23T09:45:33;8.63;;;4.00;;
76978;SDS011;65911;47.502;19.148;2024-02-23T09:48:36;5.07;;;3.00;;
76978;SDS011;65911;47.502;19.148;2024-02-23T09:51:44;5.60;;;3.72;;
76978;SDS011;65911;47.502;19.148;2024-02-23T09:54:46;5.10;;;3.60;;
76978;SDS011;65911;47.502;19.148;2024-02-23T09:57:51;6.23;;;3.70;;
76978;SDS011;65911;47.502;19.148;2024-02-23T10:00:57;7.65;;;3.10;;
76978;SDS011;65911;47.502;19.148;2024-02-23T10:04:01;6.43;;;3.58;;
76978;SDS011;65911;47.502;19.148;2024-02-23T10:07:09;4.82;;;3.15;;
76978;SDS011;65911;47.502;19.148;2024-02-23T10:10:11;5.85;;;3.17;;
76978;SDS011;65911;47.502;19.148;2024-02-23T10:13:13;7.03;;;3.33;;
76978;SDS011;65911;47.502;19.148;2024-02-23T10:16:20;8.10;;;3.00;;
76978;SDS011;65911;47.502;19.148;2024-02-23T10:19:25;3.07;;;2.27;;
76978;SDS011;65911;47.502;19.148;2024-02-23T10:22:31;6.70;;;3.20;;
76978;SDS011;65911;47.502;19.148;2024-02-23T10:25:34;6.30;;;3.08;;
76978;SDS011;65911;47.502;19.148;2024-02-23T10:28:37;7.07;;;2.93;;
76978;SDS011;65911;47.502;19.148;2024-02-23T10:31:42;5.45;;;2.72;;
76978;SDS011;65911;47.502;19.148;2024-02-23T10:34:47;5.43;;;3.15;;
76978;SDS011;65911;47.502;19.148;2024-02-23T10:37:53;5.07;;;2.88;;
76978;SDS011;65911;47.502;19.148;2024-02-23T10:40:57;5.55;;;3.00;;
76978;SDS011;65911;47.502;19.148;2024-02-23T10:44:00;5.80;;;2.92;;
76978;SDS011;65911;47.502;19.148;2024-02-23T10:47:03;8.10;;;3.20;;
76978;SDS011;65911;47.502;19.148;2024-02-23T10:50:17;11.30;;;3.73;;
76978;SDS011;65911;47.502;19.148;2024-02-23T10:53:22;6.75;;;2.60;;
76978;SDS011;65911;47.502;19.148;2024-02-23T10:56:25;8.85;;;3.63;;
76978;SDS011;65911;47.502;19.148;2024-02-23T10:59:28;7.13;;;4.10;;
76978;SDS011;65911;47.502;19.148;2024-02-23T11:02:30;6.78;;;3.05;;
76978;SDS011;65911;47.502;19.148;2024-02-23T11:05:37;7.35;;;3.53;;
76978;SDS011;65911;47.502;19.148;2024-02-23T11:08:39;6.28;;;3.60;;
76978;SDS011;65911;47.502;19.148;2024-02-23T11:11:54;5.65;;;2.72;;
76978;SDS011;65911;47.502;19.148;2024-02-23T11:14:58;6.47;;;3.47;;
76978;SDS011;65911;47.502;19.148;2024-02-23T11:18:04;6.25;;;2.72;;
76978;SDS011;65911;47.502;19.148;2024-02-23T11:21:09;6.70;;;2.63;;
76978;SDS011;65911;47.502;19.148;2024-02-23T11:24:15;5.43;;;2.72;;
76978;SDS011;65911;47.502;19.148;2024-02-23T11:27:17;5.80;;;2.88;;
76978;SDS011;65911;47.502;19.148;2024-02-23T11:30:20;7.03;;;2.70;;
76978;SDS011;65911;47.502;19.148;2024-02-23T11:33:29;5.38;;;2.20;;
76978;SDS011;65911;47.502;19.148;2024-02-23T11:36:32;5.63;;;2.97;;
76978;SDS011;65911;47.502;19.148;2024-02-23T11:39:36;3.92;;;2.42;;
76978;SDS011;65911;47.502;19.148;2024-02-23T11:42:43;4.57;;;2.50;;
76978;SDS011;65911;47.502;19.148;2024-02-23T11:45:48;3.20;;;2.63;;
76978;SDS011;65911;47.502;19.148;2024-02-23T11:48:50;6.28;;;2.38;;
76978;SDS011;65911;47.502;19.148;2024-02-23T11:51:56;4.30;;;2.30;;
76978;SDS011;65911;47.502;19.148;2024-02-23T11:54:59;4.95;;;2.45;;
76978;SDS011;65911;47.502;19.148;2024-02-23T11:58:01;4.50;;;2.40;;
76978;SDS011;65911;47.502;19.148;2024-02-23T12:01:12;5.87;;;2.23;;
76978;SDS011;65911;47.502;19.148;2024-02-23T12:04:17;4.68;;;2.63;;
76978;SDS011;65911;47.502;19.148;2024-02-23T12:07:20;4.50;;;2.50;;
76978;SDS011;65911;47.502;19.148;2024-02-23T12:10:23;6.93;;;3.10;;
76978;SDS011;65911;47.502;19.148;2024-02-23T12:13:27;6.85;;;3.15;;
76978;SDS011;65911;47.502;19.148;2024-02-23T12:16:29;4.90;;;3.13;;
76978;SDS011;65911;47.502;19.148;2024-02-23T12:19:31;3.70;;;2.72;;
76978;SDS011;65911;47.502;19.148;2024-02-23T12:22:34;5.50;;;2.70;;
76978;SDS011;65911;47.502;19.148;2024-02-23T12:25:36;6.57;;;3.55;;
76978;SDS011;65911;47.502;19.148;2024-02-23T12:28:41;7.07;;;3.33;;
76978;SDS011;65911;47.502;19.148;2024-02-23T12:31:44;6.23;;;2.93;;
76978;SDS011;65911;47.502;19.148;2024-02-23T12:34:47;5.38;;;3.28;;
76978;SDS011;65911;47.502;19.148;2024-02-23T12:37:50;6.25;;;3.50;;
76978;SDS011;65911;47.502;19.148;2024-02-23T12:40:53;6.07;;;3.45;;
76978;SDS011;65911;47.502;19.148;2024-02-23T12:43:55;6.10;;;2.72;;
76978;SDS011;65911;47.502;19.148;2024-02-23T12:46:57;5.45;;;3.15;;
76978;SDS011;65911;47.502;19.148;2024-02-23T12:50:03;3.95;;;2.97;;
76978;SDS011;65911;47.502;19.148;2024-02-23T12:53:07;4.70;;;3.33;;
76978;SDS011;65911;47.502;19.148;2024-02-23T12:56:11;6.18;;;3.05;;
76978;SDS011;65911;47.502;19.148;2024-02-23T12:59:15;6.35;;;3.03;;
76978;SDS011;65911;47.502;19.148;2024-02-23T13:02:18;9.67;;;3.50;;
76978;SDS011;65911;47.502;19.148;2024-02-23T13:05:20;6.30;;;2.90;;
76978;SDS011;65911;47.502;19.148;2024-02-23T13:08:23;6.72;;;3.45;;
76978;SDS011;65911;47.502;19.148;2024-02-23T13:11:25;8.80;;;3.90;;
76978;SDS011;65911;47.502;19.148;2024-02-23T13:14:28;6.07;;;3.50;;
76978;SDS011;65911;47.502;19.148;2024-02-23T13:17:30;5.25;;;3.35;;
76978;SDS011;65911;47.502;19.148;2024-02-23T13:20:32;5.32;;;3.17;;
76978;SDS011;65911;47.502;19.148;2024-02-23T13:23:35;6.57;;;3.33;;
76978;SDS011;65911;47.502;19.148;2024-02-23T13:26:38;7.40;;;3.38;;
76978;SDS011;65911;47.502;19.148;2024-02-23T13:29:40;6.03;;;3.10;;
76978;SDS011;65911;47.502;19.148;2024-02-23T13:32:43;5.87;;;3.47;;
76978;SDS011;65911;47.502;19.148;2024-02-23T13:35:45;6.38;;;3.35;;
76978;SDS011;65911;47.502;19.148;2024-02-23T13:38:47;8.35;;;3.70;;
76978;SDS011;65911;47.502;19.148;2024-02-23T13:41:49;6.70;;;3.33;;
76978;SDS011;65911;47.502;19.148;2024-02-23T13:44:52;7.90;;;3.70;;
76978;SDS011;65911;47.502;19.148;2024-02-23T13:48:01;7.60;;;4.20;;
76978;SDS011;65911;47.502;19.148;2024-02-23T13:51:04;6.15;;;3.92;;
76978;SDS011;65911;47.502;19.148;2024-02-23T13:54:07;7.27;;;3.57;;
76978;SDS011;65911;47.502;19.148;2024-02-23T13:57:09;7.10;;;4.07;;
76978;SDS011;65911;47.502;19.148;2024-02-23T14:00:11;8.95;;;4.60;;
76978;SDS011;65911;47.502;19.148;2024-02-23T14:03:18;9.13;;;4.40;;
76978;SDS011;65911;47.502;19.148;2024-02-23T14:06:20;9.23;;;4.80;;
76978;SDS011;65911;47.502;19.148;2024-02-23T14:09:23;12.05;;;4.80;;
76978;SDS011;65911;47.502;19.148;2024-02-23T14:12:25;8.20;;;4.47;;
76978;SDS011;65911;47.502;19.148;2024-02-23T14:15:27;7.63;;;4.60;;
76978;SDS011;65911;47.502;19.148;2024-02-23T14:18:32;8.70;;;4.82;;
76978;SDS011;65911;47.502;19.148;2024-02-23T14:21:39;7.80;;;4.80;;
76978;SDS011;65911;47.502;19.148;2024-02-23T14:24:41;9.20;;;4.70;;
76978;SDS011;65911;47.502;19.148;2024-02-23T14:27:43;7.43;;;4.55;;
76978;SDS011;65911;47.502;19.148;2024-02-23T14:30:45;6.75;;;4.68;;
76978;SDS011;65911;47.502;19.148;2024-02-23T14:33:48;7.33;;;5.10;;
76978;SDS011;65911;47.502;19.148;2024-02-23T14:36:52;6.68;;;4.85;;
76978;SDS011;65911;47.502;19.148;2024-02-23T14:39:55;9.30;;;4.55;;
76978;SDS011;65911;47.502;19.148;2024-02-23T14:42:57;8.93;;;4.88;;
76978;SDS011;65911;47.502;19.148;2024-02-23T14:45:59;8.65;;;5.45;;
76978;SDS011;65911;47.502;19.148;2024-02-23T14:49:01;8.20;;;5.63;;
76978;SDS011;65911;47.502;19.148;2024-02-23T14:52:04;10.48;;;5.78;;
76978;SDS011;65911;47.502;19.148;2024-02-23T14:55:06;8.00;;;4.70;;
76978;SDS011;65911;47.502;19.148;2024-02-23T14:58:09;7.65;;;4.55;;
76978;SDS011;65911;47.502;19.148;2024-02-23T15:01:11;7.25;;;5.18;;
76978;SDS011;65911;47.502;19.148;2024-02-23T15:04:13;11.00;;;5.77;;
76978;SDS011;65911;47.502;19.148;2024-02-23T15:07:19;8.25;;;4.95;;
76978;SDS011;65911;47.502;19.148;2024-02-23T15:10:21;9.32;;;5.13;;
76978;SDS011;65911;47.502;19.148;2024-02-23T15:13:24;10.93;;;5.43;;
76978;SDS011;65911;47.502;19.148;2024-02-23T15:16:27;10.73;;;5.90;;
76978;SDS011;65911;47.502;19.148;2024-02-23T15:19:29;10.23;;;5.82;;
76978;SDS011;65911;47.502;19.148;2024-02-23T15:22:31;12.02;;;5.20;;
76978;SDS011;65911;47.502;19.148;2024-02-23T15:25:34;11.50;;;6.10;;
76978;SDS011;65911;47.502;19.148;2024-02-23T15:28:40;9.80;;;5.50;;
76978;SDS011;65911;47.502;19.148;2024-02-23T15:31:43;12.63;;;5.93;;
76978;SDS011;65911;47.502;19.148;2024-02-23T15:34:45;10.43;;;5.50;;
76978;SDS011;65911;47.502;19.148;2024-02-23T15:37:47;9.52;;;5.90;;
76978;SDS011;65911;47.502;19.148;2024-02-23T15:40:50;10.98;;;5.97;;
76978;SDS011;65911;47.502;19.148;2024-02-23T15:43:52;9.63;;;6.45;;
76978;SDS011;65911;47.502;19.148;2024-02-23T15:46:54;11.98;;;6.57;;
76978;SDS011;65911;47.502;19.148;2024-02-23T15:49:56;11.30;;;6.32;;
76978;SDS011;65911;47.502;19.148;2024-02-23T15:53:18;12.95;;;6.80;;
76978;SDS011;65911;47.502;19.148;2024-02-23T15:56:21;10.37;;;6.60;;
76978;SDS011;65911;47.502;19.148;2024-02-23T15:59:23;10.70;;;5.68;;
76978;SDS011;65911;47.502;19.148;2024-02-23T16:02:26;9.85;;;5.22;;
76978;SDS011;65911;47.502;19.148;2024-02-23T16:05:31;9.77;;;5.80;;
76978;SDS011;65911;47.502;19.148;2024-02-23T16:08:43;12.52;;;5.53;;
76978;SDS011;65911;47.502;19.148;2024-02-23T16:11:46;8.68;;;4.95;;
76978;SDS011;65911;47.502;19.148;2024-02-23T16:14:49;9.25;;;6.00;;
76978;SDS011;65911;47.502;19.148;2024-02-23T16:17:51;9.40;;;5.75;;
76978;SDS011;65911;47.502;19.148;2024-02-23T16:20:54;10.15;;;5.68;;
76978;SDS011;65911;47.502;19.148;2024-02-23T16:23:56;8.27;;;5.45;;
76978;SDS011;65911;47.502;19.148;2024-02-23T16:27:01;8.93;;;5.57;;
76978;SDS011;65911;47.502;19.148;2024-02-23T16:30:04;8.75;;;5.97;;
76978;SDS011;65911;47.502;19.148;2024-02-23T16:33:07;10.95;;;5.45;;
76978;SDS011;65911;47.502;19.148;2024-02-23T16:36:09;9.70;;;6.13;;
76978;SDS011;65911;47.502;19.148;2024-02-23T16:39:12;10.77;;;5.57;;
76978;SDS011;65911;47.502;19.148;2024-02-23T16:42:14;10.15;;;6.05;;
76978;SDS011;65911;47.502;19.148;2024-02-23T16:45:17;10.48;;;5.70;;
76978;SDS011;65911;47.502;19.148;2024-02-23T16:48:19;11.80;;;6.68;;
76978;SDS011;65911;47.502;19.148;2024-02-23T16:51:25;9.55;;;5.95;;
76978;SDS011;65911;47.502;19.148;2024-02-23T16:54:27;10.48;;;6.47;;
76978;SDS011;65911;47.502;19.148;2024-02-23T16:57:29;11.20;;;6.70;;
76978;SDS011;65911;47.502;19.148;2024-02-23T17:00:31;11.55;;;6.80;;
76978;SDS011;65911;47.502;19.148;2024-02-23T17:03:34;16.67;;;8.60;;
76978;SDS011;65911;47.502;19.148;2024-02-23T17:06:37;13.70;;;8.73;;
76978;SDS011;65911;47.502;19.148;2024-02-23T17:09:39;14.15;;;8.10;;
76978;SDS011;65911;47.502;19.148;2024-02-23T17:12:45;13.77;;;7.90;;
76978;SDS011;65911;47.502;19.148;2024-02-23T17:15:49;12.15;;;7.30;;
76978;SDS011;65911;47.502;19.148;2024-02-23T17:18:51;13.85;;;8.52;;
76978;SDS011;65911;47.502;19.148;2024-02-23T17:21:54;13.02;;;8.38;;
76978;SDS011;65911;47.502;19.148;2024-02-23T17:24:56;11.32;;;7.90;;
76978;SDS011;65911;47.502;19.148;2024-02-23T17:27:58;11.33;;;7.27;;
76978;SDS011;65911;47.502;19.148;2024-02-23T17:31:00;15.90;;;8.10;;
76978;SDS011;65911;47.502;19.148;2024-02-23T17:34:03;12.30;;;7.93;;
76978;SDS011;65911;47.502;19.148;2024-02-23T17:37:05;12.10;;;7.87;;
76978;SDS011;65911;47.502;19.148;2024-02-23T17:40:09;11.52;;;7.28;;
76978;SDS011;65911;47.502;19.148;2024-02-23T17:43:12;13.65;;;7.63;;
76978;SDS011;65911;47.502;19.148;2024-02-23T17:46:14;11.38;;;7.88;;
76978;SDS011;65911;47.502;19.148;2024-02-23T17:49:16;15.23;;;8.07;;
76978;SDS011;65911;47.502;19.148;2024-02-23T17:52:18;11.95;;;7.32;;
76978;SDS011;65911;47.502;19.148;2024-02-23T17:55:20;13.40;;;8.27;;
76978;SDS011;65911;47.502;19.148;2024-02-23T17:58:23;14.93;;;7.77;;
76978;SDS011;65911;47.502;19.148;2024-02-23T18:01:26;13.55;;;8.05;;
76978;SDS011;65911;47.502;19.148;2024-02-23T18:04:28;14.43;;;7.85;;
76978;SDS011;65911;47.502;19.148;2024-02-23T18:07:30;13.13;;;7.67;;
76978;SDS011;65911;47.502;19.148;2024-02-23T18:10:33;12.40;;;7.13;;
76978;SDS011;65911;47.502;19.148;2024-02-23T18:13:36;13.55;;;8.23;;
76978;SDS011;65911;47.502;19.148;2024-02-23T18:16:39;14.35;;;7.75;;